sensor_id;sensor_type;location;lat;lon;timestamp;P1;durP1;ratioP1;P2;durP2;ratioP2
37449;SDS011;23309;52.582;13.406;2022-07-06T00:00:28;2.70;;;1.33;;
37449;SDS011;23309;52.582;13.406;2022-07-06T00:02:54;4.00;;;1.10;;
37449;SDS011;23309;52.582;13.406;2022-07-06T00:05:21;9.30;;;1.40;;
37449;SDS011;23309;52.582;13.406;2022-07-06T00:07:47;6.20;;;1.40;;
37449;SDS011;23309;52.582;13.406;2022-07-06T00:10:13;2.67;;;1.20;;
37449;SDS011;23309;52.582;13.406;2022-07-06T00:12:39;2.60;;;1.07;;
37449;SDS011;23309;52.582;13.406;2022-07-06T00:15:08;2.50;;;1.10;;
37449;SDS011;23309;52.582;13.406;2022-07-06T00:17:35;3.53;;;1.00;;
37449;SDS011;23309;52.582;13.406;2022-07-06T00:20:01;3.10;;;1.20;;
37449;SDS011;23309;52.582;13.406;2022-07-06T00:22:28;5.73;;;1.30;;
37449;SDS011;23309;52.582;13.406;2022-07-06T00:24:54;1.73;;;1.30;;
37449;SDS011;23309;52.582;13.406;2022-07-06T00:27:20;1.23;;;1.13;;
37449;SDS011;23309;52.582;13.406;2022-07-06T00:29:46;2.13;;;1.23;;
37449;SDS011;23309;52.582;13.406;2022-07-06T00:32:15;2.13;;;1.10;;
37449;SDS011;23309;52.582;13.406;2022-07-06T00:34:41;1.30;;;1.20;;
37449;SDS011;23309;52.582;13.406;2022-07-06T00:37:07;2.00;;;1.20;;
37449;SDS011;23309;52.582;13.406;2022-07-06T00:39:33;1.37;;;1.10;;
37449;SDS011;23309;52.582;13.406;2022-07-06T00:42:00;1.93;;;1.00;;
37449;SDS011;23309;52.582;13.406;2022-07-06T00:44:26;2.60;;;1.20;;
37449;SDS011;23309;52.582;13.406;2022-07-06T00:46:52;2.13;;;1.20;;
37449;SDS011;23309;52.582;13.406;2022-07-06T00:49:21;3.27;;;1.10;;
37449;SDS011;23309;52.582;13.406;2022-07-06T00:51:47;3.53;;;1.50;;
37449;SDS011;23309;52.582;13.406;2022-07-06T00:54:13;2.97;;;1.00;;
37449;SDS011;23309;52.582;13.406;2022-07-06T00:56:39;3.60;;;1.23;;
37449;SDS011;23309;52.582;13.406;2022-07-06T00:59:05;1.57;;;1.00;;
37449;SDS011;23309;52.582;13.406;2022-07-06T01:01:32;1.50;;;1.13;;
37449;SDS011;23309;52.582;13.406;2022-07-06T01:03:58;1.90;;;1.20;;
37449;SDS011;23309;52.582;13.406;2022-07-06T01:06:27;3.10;;;1.37;;
37449;SDS011;23309;52.582;13.406;2022-07-06T01:08:53;2.63;;;1.97;;
37449;SDS011;23309;52.582;13.406;2022-07-06T01:11:20;5.70;;;1.63;;
37449;SDS011;23309;52.582;13.406;2022-07-06T01:13:46;5.23;;;1.40;;
37449;SDS011;23309;52.582;13.406;2022-07-06T01:16:15;3.20;;;1.40;;
37449;SDS011;23309;52.582;13.406;2022-07-06T01:18:42;3.17;;;1.50;;
37449;SDS011;23309;52.582;13.406;2022-07-06T01:21:11;3.40;;;1.40;;
37449;SDS011;23309;52.582;13.406;2022-07-06T01:23:40;1.67;;;1.50;;
37449;SDS011;23309;52.582;13.406;2022-07-06T01:26:12;3.70;;;1.30;;
37449;SDS011;23309;52.582;13.406;2022-07-06T01:28:39;4.60;;;1.50;;
37449;SDS011;23309;52.582;13.406;2022-07-06T01:31:05;7.80;;;1.40;;
37449;SDS011;23309;52.582;13.406;2022-07-06T01:33:40;2.03;;;1.00;;
37449;SDS011;23309;52.582;13.406;2022-07-06T01:36:06;3.80;;;1.20;;
37449;SDS011;23309;52.582;13.406;2022-07-06T01:38:35;6.23;;;1.33;;
37449;SDS011;23309;52.582;13.406;2022-07-06T01:41:10;1.67;;;1.00;;
37449;SDS011;23309;52.582;13.406;2022-07-06T01:43:36;1.70;;;1.07;;
37449;SDS011;23309;52.582;13.406;2022-07-06T01:46:02;2.90;;;1.30;;
37449;SDS011;23309;52.582;13.406;2022-07-06T01:48:28;1.87;;;1.30;;
37449;SDS011;23309;52.582;13.406;2022-07-06T01:50:55;3.23;;;1.20;;
37449;SDS011;23309;52.582;13.406;2022-07-06T01:53:21;1.17;;;1.07;;
37449;SDS011;23309;52.582;13.406;2022-07-06T01:55:50;1.40;;;1.20;;
37449;SDS011;23309;52.582;13.406;2022-07-06T01:58:16;1.80;;;1.10;;
37449;SDS011;23309;52.582;13.406;2022-07-06T02:00:42;2.90;;;1.30;;
37449;SDS011;23309;52.582;13.406;2022-07-06T02:03:08;3.73;;;1.20;;
37449;SDS011;23309;52.582;13.406;2022-07-06T02:05:35;2.10;;;1.10;;
37449;SDS011;23309;52.582;13.406;2022-07-06T02:08:01;3.63;;;1.20;;
37449;SDS011;23309;52.582;13.406;2022-07-06T02:10:27;1.40;;;1.10;;
37449;SDS011;23309;52.582;13.406;2022-07-06T02:12:56;3.83;;;1.33;;
37449;SDS011;23309;52.582;13.406;2022-07-06T02:15:22;3.70;;;1.33;;
37449;SDS011;23309;52.582;13.406;2022-07-06T02:17:48;1.50;;;1.40;;
37449;SDS011;23309;52.582;13.406;2022-07-06T02:20:14;1.43;;;1.33;;
37449;SDS011;23309;52.582;13.406;2022-07-06T02:22:40;5.80;;;1.30;;
37449;SDS011;23309;52.582;13.406;2022-07-06T02:25:07;3.73;;;1.37;;
37449;SDS011;23309;52.582;13.406;2022-07-06T02:27:34;2.50;;;1.30;;
37449;SDS011;23309;52.582;13.406;2022-07-06T02:30:02;4.53;;;1.30;;
37449;SDS011;23309;52.582;13.406;2022-07-06T02:32:30;8.03;;;1.73;;
37449;SDS011;23309;52.582;13.406;2022-07-06T02:34:57;2.73;;;1.60;;
37449;SDS011;23309;52.582;13.406;2022-07-06T02:37:23;1.50;;;1.37;;
37449;SDS011;23309;52.582;13.406;2022-07-06T02:39:49;1.40;;;1.30;;
37449;SDS011;23309;52.582;13.406;2022-07-06T02:42:15;5.20;;;1.83;;
37449;SDS011;23309;52.582;13.406;2022-07-06T02:44:41;2.87;;;1.60;;
37449;SDS011;23309;52.582;13.406;2022-07-06T02:47:10;2.53;;;1.40;;
37449;SDS011;23309;52.582;13.406;2022-07-06T02:49:36;3.60;;;1.90;;
37449;SDS011;23309;52.582;13.406;2022-07-06T02:52:02;6.47;;;1.70;;
37449;SDS011;23309;52.582;13.406;2022-07-06T02:54:29;5.10;;;1.77;;
37449;SDS011;23309;52.582;13.406;2022-07-06T02:56:55;4.50;;;1.73;;
37449;SDS011;23309;52.582;13.406;2022-07-06T02:59:21;3.70;;;1.80;;
37449;SDS011;23309;52.582;13.406;2022-07-06T03:01:47;4.97;;;1.87;;
37449;SDS011;23309;52.582;13.406;2022-07-06T03:04:16;2.33;;;1.60;;
37449;SDS011;23309;52.582;13.406;2022-07-06T03:06:42;3.80;;;1.80;;
37449;SDS011;23309;52.582;13.406;2022-07-06T03:09:08;4.40;;;1.90;;
37449;SDS011;23309;52.582;13.406;2022-07-06T03:11:34;2.93;;;2.00;;
37449;SDS011;23309;52.582;13.406;2022-07-06T03:14:00;4.03;;;1.90;;
37449;SDS011;23309;52.582;13.406;2022-07-06T03:16:27;5.10;;;1.70;;
37449;SDS011;23309;52.582;13.406;2022-07-06T03:18:53;5.13;;;1.70;;
37449;SDS011;23309;52.582;13.406;2022-07-06T03:21:22;3.80;;;1.80;;
37449;SDS011;23309;52.582;13.406;2022-07-06T03:23:48;3.40;;;1.80;;
37449;SDS011;23309;52.582;13.406;2022-07-06T03:26:15;8.30;;;2.00;;
37449;SDS011;23309;52.582;13.406;2022-07-06T03:28:41;5.23;;;1.80;;
37449;SDS011;23309;52.582;13.406;2022-07-06T03:31:07;3.47;;;1.87;;
37449;SDS011;23309;52.582;13.406;2022-07-06T03:33:33;4.50;;;2.30;;
37449;SDS011;23309;52.582;13.406;2022-07-06T03:35:59;9.80;;;2.00;;
37449;SDS011;23309;52.582;13.406;2022-07-06T03:38:28;5.80;;;2.03;;
37449;SDS011;23309;52.582;13.406;2022-07-06T03:40:54;3.50;;;1.87;;
37449;SDS011;23309;52.582;13.406;2022-07-06T03:43:20;4.33;;;1.97;;
37449;SDS011;23309;52.582;13.406;2022-07-06T03:45:47;7.17;;;1.83;;
37449;SDS011;23309;52.582;13.406;2022-07-06T03:48:13;4.97;;;2.03;;
37449;SDS011;23309;52.582;13.406;2022-07-06T03:50:39;3.80;;;1.60;;
37449;SDS011;23309;52.582;13.406;2022-07-06T03:53:05;3.80;;;1.80;;
37449;SDS011;23309;52.582;13.406;2022-07-06T03:55:34;6.73;;;2.10;;
37449;SDS011;23309;52.582;13.406;2022-07-06T03:58:00;4.73;;;1.77;;
37449;SDS011;23309;52.582;13.406;2022-07-06T04:00:26;8.47;;;2.33;;
37449;SDS011;23309;52.582;13.406;2022-07-06T04:02:52;3.17;;;2.00;;
37449;SDS011;23309;52.582;13.406;2022-07-06T04:05:18;4.80;;;2.20;;
37449;SDS011;23309;52.582;13.406;2022-07-06T04:07:45;6.40;;;2.07;;
37449;SDS011;23309;52.582;13.406;2022-07-06T04:10:11;5.33;;;1.90;;
37449;SDS011;23309;52.582;13.406;2022-07-06T04:12:43;5.30;;;2.00;;
37449;SDS011;23309;52.582;13.406;2022-07-06T04:15:10;5.33;;;1.97;;
37449;SDS011;23309;52.582;13.406;2022-07-06T04:17:37;4.70;;;1.83;;
37449;SDS011;23309;52.582;13.406;2022-07-06T04:20:04;5.10;;;2.03;;
37449;SDS011;23309;52.582;13.406;2022-07-06T04:22:32;5.83;;;2.07;;
37449;SDS011;23309;52.582;13.406;2022-07-06T04:25:01;4.80;;;2.10;;
37449;SDS011;23309;52.582;13.406;2022-07-06T04:27:28;6.33;;;2.40;;
37449;SDS011;23309;52.582;13.406;2022-07-06T04:29:57;5.83;;;2.60;;
37449;SDS011;23309;52.582;13.406;2022-07-06T04:32:23;14.57;;;2.03;;
37449;SDS011;23309;52.582;13.406;2022-07-06T04:34:49;5.23;;;2.20;;
37449;SDS011;23309;52.582;13.406;2022-07-06T04:37:15;7.67;;;1.73;;
37449;SDS011;23309;52.582;13.406;2022-07-06T04:39:42;4.03;;;1.63;;
37449;SDS011;23309;52.582;13.406;2022-07-06T04:42:08;6.73;;;2.20;;
37449;SDS011;23309;52.582;13.406;2022-07-06T04:44:34;6.67;;;2.00;;
37449;SDS011;23309;52.582;13.406;2022-07-06T04:47:03;4.83;;;1.87;;
37449;SDS011;23309;52.582;13.406;2022-07-06T04:49:29;6.80;;;1.70;;
37449;SDS011;23309;52.582;13.406;2022-07-06T04:51:55;6.63;;;1.77;;
37449;SDS011;23309;52.582;13.406;2022-07-06T04:54:22;3.90;;;1.50;;
37449;SDS011;23309;52.582;13.406;2022-07-06T04:56:48;4.83;;;1.73;;
37449;SDS011;23309;52.582;13.406;2022-07-06T04:59:14;4.67;;;1.37;;
37449;SDS011;23309;52.582;13.406;2022-07-06T05:01:41;5.53;;;1.60;;
37449;SDS011;23309;52.582;13.406;2022-07-06T05:04:10;2.60;;;1.40;;
37449;SDS011;23309;52.582;13.406;2022-07-06T05:06:36;5.13;;;1.50;;
37449;SDS011;23309;52.582;13.406;2022-07-06T05:09:03;4.87;;;1.83;;
37449;SDS011;23309;52.582;13.406;2022-07-06T05:11:29;4.20;;;1.60;;
37449;SDS011;23309;52.582;13.406;2022-07-06T05:13:55;7.30;;;1.70;;
37449;SDS011;23309;52.582;13.406;2022-07-06T05:16:22;4.10;;;1.70;;
37449;SDS011;23309;52.582;13.406;2022-07-06T05:18:48;10.43;;;2.30;;
37449;SDS011;23309;52.582;13.406;2022-07-06T05:21:17;8.50;;;2.33;;
37449;SDS011;23309;52.582;13.406;2022-07-06T05:23:43;4.83;;;1.80;;
37449;SDS011;23309;52.582;13.406;2022-07-06T05:26:09;5.53;;;2.27;;
37449;SDS011;23309;52.582;13.406;2022-07-06T05:28:35;3.80;;;2.00;;
37449;SDS011;23309;52.582;13.406;2022-07-06T05:31:02;3.77;;;1.47;;
37449;SDS011;23309;52.582;13.406;2022-07-06T05:33:28;4.57;;;1.30;;
37449;SDS011;23309;52.582;13.406;2022-07-06T05:35:54;8.87;;;1.60;;
37449;SDS011;23309;52.582;13.406;2022-07-06T05:38:23;6.30;;;1.63;;
37449;SDS011;23309;52.582;13.406;2022-07-06T05:40:49;5.33;;;1.73;;
37449;SDS011;23309;52.582;13.406;2022-07-06T05:43:15;5.60;;;2.20;;
37449;SDS011;23309;52.582;13.406;2022-07-06T05:45:42;3.57;;;1.87;;
37449;SDS011;23309;52.582;13.406;2022-07-06T05:48:08;3.97;;;1.60;;
37449;SDS011;23309;52.582;13.406;2022-07-06T05:50:34;4.00;;;1.50;;
37449;SDS011;23309;52.582;13.406;2022-07-06T05:53:01;5.40;;;1.53;;
37449;SDS011;23309;52.582;13.406;2022-07-06T05:55:31;6.07;;;1.37;;
37449;SDS011;23309;52.582;13.406;2022-07-06T05:57:58;3.40;;;1.57;;
37449;SDS011;23309;52.582;13.406;2022-07-06T06:00:25;4.07;;;1.70;;
37449;SDS011;23309;52.582;13.406;2022-07-06T06:02:53;3.07;;;1.63;;
37449;SDS011;23309;52.582;13.406;2022-07-06T06:05:19;9.73;;;2.17;;
37449;SDS011;23309;52.582;13.406;2022-07-06T06:07:46;6.20;;;2.30;;
37449;SDS011;23309;52.582;13.406;2022-07-06T06:10:13;3.23;;;1.60;;
37449;SDS011;23309;52.582;13.406;2022-07-06T06:12:43;6.50;;;1.70;;
37449;SDS011;23309;52.582;13.406;2022-07-06T06:15:10;12.67;;;2.43;;
37449;SDS011;23309;52.582;13.406;2022-07-06T06:17:37;4.30;;;2.37;;
37449;SDS011;23309;52.582;13.406;2022-07-06T06:20:06;8.90;;;2.00;;
37449;SDS011;23309;52.582;13.406;2022-07-06T06:22:43;10.90;;;2.40;;
37449;SDS011;23309;52.582;13.406;2022-07-06T06:25:11;6.10;;;2.07;;
37449;SDS011;23309;52.582;13.406;2022-07-06T06:27:38;4.67;;;1.63;;
37449;SDS011;23309;52.582;13.406;2022-07-06T06:30:07;4.50;;;1.70;;
37449;SDS011;23309;52.582;13.406;2022-07-06T06:32:36;5.57;;;2.17;;
37449;SDS011;23309;52.582;13.406;2022-07-06T06:35:02;8.50;;;1.90;;
37449;SDS011;23309;52.582;13.406;2022-07-06T06:37:30;5.37;;;2.00;;
37449;SDS011;23309;52.582;13.406;2022-07-06T06:39:57;7.90;;;2.10;;
37449;SDS011;23309;52.582;13.406;2022-07-06T06:42:23;4.13;;;1.67;;
37449;SDS011;23309;52.582;13.406;2022-07-06T06:44:49;4.53;;;1.80;;
37449;SDS011;23309;52.582;13.406;2022-07-06T06:47:18;3.37;;;1.50;;
37449;SDS011;23309;52.582;13.406;2022-07-06T06:49:44;3.13;;;1.77;;
37449;SDS011;23309;52.582;13.406;2022-07-06T06:52:10;3.77;;;1.60;;
37449;SDS011;23309;52.582;13.406;2022-07-06T06:54:36;5.10;;;1.53;;
37449;SDS011;23309;52.582;13.406;2022-07-06T06:57:03;7.70;;;2.03;;
37449;SDS011;23309;52.582;13.406;2022-07-06T06:59:29;3.97;;;1.77;;
37449;SDS011;23309;52.582;13.406;2022-07-06T07:01:55;3.70;;;1.80;;
37449;SDS011;23309;52.582;13.406;2022-07-06T07:04:24;5.60;;;1.70;;
37449;SDS011;23309;52.582;13.406;2022-07-06T07:06:50;5.80;;;2.00;;
37449;SDS011;23309;52.582;13.406;2022-07-06T07:09:17;8.10;;;2.17;;
37449;SDS011;23309;52.582;13.406;2022-07-06T07:11:43;3.53;;;1.63;;
37449;SDS011;23309;52.582;13.406;2022-07-06T07:14:09;11.80;;;1.77;;
37449;SDS011;23309;52.582;13.406;2022-07-06T07:16:35;3.43;;;1.67;;
37449;SDS011;23309;52.582;13.406;2022-07-06T07:19:01;5.63;;;1.70;;
37449;SDS011;23309;52.582;13.406;2022-07-06T07:21:30;5.50;;;2.23;;
37449;SDS011;23309;52.582;13.406;2022-07-06T07:23:56;10.83;;;2.17;;
37449;SDS011;23309;52.582;13.406;2022-07-06T07:26:22;5.60;;;1.80;;
37449;SDS011;23309;52.582;13.406;2022-07-06T07:28:49;3.10;;;1.43;;
37449;SDS011;23309;52.582;13.406;2022-07-06T07:31:15;4.73;;;1.70;;
37449;SDS011;23309;52.582;13.406;2022-07-06T07:33:41;5.30;;;2.10;;
37449;SDS011;23309;52.582;13.406;2022-07-06T07:36:07;3.80;;;1.63;;
37449;SDS011;23309;52.582;13.406;2022-07-06T07:38:36;4.00;;;1.60;;
37449;SDS011;23309;52.582;13.406;2022-07-06T07:41:02;4.37;;;1.47;;
37449;SDS011;23309;52.582;13.406;2022-07-06T07:43:29;2.30;;;1.40;;
37449;SDS011;23309;52.582;13.406;2022-07-06T07:45:55;5.50;;;1.40;;
37449;SDS011;23309;52.582;13.406;2022-07-06T07:48:21;4.43;;;1.80;;
37449;SDS011;23309;52.582;13.406;2022-07-06T07:50:47;4.07;;;1.40;;
37449;SDS011;23309;52.582;13.406;2022-07-06T07:53:13;5.33;;;1.53;;
37449;SDS011;23309;52.582;13.406;2022-07-06T07:55:42;4.40;;;1.50;;
37449;SDS011;23309;52.582;13.406;2022-07-06T07:58:08;3.23;;;1.60;;
37449;SDS011;23309;52.582;13.406;2022-07-06T08:00:35;4.83;;;1.90;;
37449;SDS011;23309;52.582;13.406;2022-07-06T08:03:01;6.67;;;2.30;;
37449;SDS011;23309;52.582;13.406;2022-07-06T08:05:27;3.63;;;1.40;;
37449;SDS011;23309;52.582;13.406;2022-07-06T08:07:53;2.67;;;1.37;;
37449;SDS011;23309;52.582;13.406;2022-07-06T08:10:19;4.10;;;1.23;;
37449;SDS011;23309;52.582;13.406;2022-07-06T08:12:48;2.10;;;1.20;;
37449;SDS011;23309;52.582;13.406;2022-07-06T08:15:15;2.43;;;1.23;;
37449;SDS011;23309;52.582;13.406;2022-07-06T08:17:41;2.37;;;1.30;;
37449;SDS011;23309;52.582;13.406;2022-07-06T08:20:08;2.90;;;1.20;;
37449;SDS011;23309;52.582;13.406;2022-07-06T08:22:35;3.17;;;1.13;;
37449;SDS011;23309;52.582;13.406;2022-07-06T08:25:02;6.10;;;1.67;;
37449;SDS011;23309;52.582;13.406;2022-07-06T08:27:29;4.50;;;1.53;;
37449;SDS011;23309;52.582;13.406;2022-07-06T08:29:58;1.90;;;1.37;;
37449;SDS011;23309;52.582;13.406;2022-07-06T08:32:24;4.30;;;1.47;;
37449;SDS011;23309;52.582;13.406;2022-07-06T08:34:50;2.20;;;1.23;;
37449;SDS011;23309;52.582;13.406;2022-07-06T08:37:16;2.53;;;1.40;;
37449;SDS011;23309;52.582;13.406;2022-07-06T08:39:43;3.00;;;1.40;;
37449;SDS011;23309;52.582;13.406;2022-07-06T08:42:09;3.03;;;1.20;;
37449;SDS011;23309;52.582;13.406;2022-07-06T08:44:35;2.73;;;1.10;;
37449;SDS011;23309;52.582;13.406;2022-07-06T08:47:05;6.03;;;1.40;;
37449;SDS011;23309;52.582;13.406;2022-07-06T08:49:32;5.40;;;2.00;;
37449;SDS011;23309;52.582;13.406;2022-07-06T08:52:00;3.70;;;1.17;;
37449;SDS011;23309;52.582;13.406;2022-07-06T08:54:27;2.40;;;1.40;;
37449;SDS011;23309;52.582;13.406;2022-07-06T08:56:54;7.73;;;1.67;;
37449;SDS011;23309;52.582;13.406;2022-07-06T08:59:20;4.27;;;1.50;;
37449;SDS011;23309;52.582;13.406;2022-07-06T09:01:46;1.63;;;1.17;;
37449;SDS011;23309;52.582;13.406;2022-07-06T09:04:16;4.47;;;1.20;;
37449;SDS011;23309;52.582;13.406;2022-07-06T09:06:46;6.00;;;1.37;;
37449;SDS011;23309;52.582;13.406;2022-07-06T09:09:12;1.37;;;1.00;;
37449;SDS011;23309;52.582;13.406;2022-07-06T09:11:45;3.60;;;1.23;;
37449;SDS011;23309;52.582;13.406;2022-07-06T09:14:11;2.57;;;1.13;;
37449;SDS011;23309;52.582;13.406;2022-07-06T09:16:38;1.27;;;0.83;;
37449;SDS011;23309;52.582;13.406;2022-07-06T09:19:05;1.77;;;0.90;;
37449;SDS011;23309;52.582;13.406;2022-07-06T09:21:34;2.57;;;1.10;;
37449;SDS011;23309;52.582;13.406;2022-07-06T09:24:01;2.80;;;1.03;;
37449;SDS011;23309;52.582;13.406;2022-07-06T09:26:31;1.03;;;0.90;;
37449;SDS011;23309;52.582;13.406;2022-07-06T09:28:58;1.57;;;1.30;;
37449;SDS011;23309;52.582;13.406;2022-07-06T09:31:24;1.60;;;1.20;;
37449;SDS011;23309;52.582;13.406;2022-07-06T09:33:54;4.33;;;1.10;;
37449;SDS011;23309;52.582;13.406;2022-07-06T09:39:25;2.67;;;1.03;;
37449;SDS011;23309;52.582;13.406;2022-07-06T09:41:53;2.70;;;1.00;;
37449;SDS011;23309;52.582;13.406;2022-07-06T09:44:22;2.13;;;1.17;;
37449;SDS011;23309;52.582;13.406;2022-07-06T09:46:50;1.70;;;1.07;;
37449;SDS011;23309;52.582;13.406;2022-07-06T09:49:17;2.07;;;1.20;;
37449;SDS011;23309;52.582;13.406;2022-07-06T09:51:44;1.37;;;1.10;;
37449;SDS011;23309;52.582;13.406;2022-07-06T09:54:14;2.53;;;1.33;;
37449;SDS011;23309;52.582;13.406;2022-07-06T09:56:41;4.50;;;1.10;;
37449;SDS011;23309;52.582;13.406;2022-07-06T09:59:09;2.90;;;1.10;;
37449;SDS011;23309;52.582;13.406;2022-07-06T10:01:36;5.30;;;1.20;;
37449;SDS011;23309;52.582;13.406;2022-07-06T10:04:04;2.70;;;1.07;;
37449;SDS011;23309;52.582;13.406;2022-07-06T10:06:31;4.27;;;1.40;;
37449;SDS011;23309;52.582;13.406;2022-07-06T10:08:58;2.37;;;1.07;;
37449;SDS011;23309;52.582;13.406;2022-07-06T10:11:28;4.67;;;1.10;;
37449;SDS011;23309;52.582;13.406;2022-07-06T10:13:55;2.67;;;1.00;;
37449;SDS011;23309;52.582;13.406;2022-07-06T10:16:22;8.60;;;1.40;;
37449;SDS011;23309;52.582;13.406;2022-07-06T10:18:50;1.23;;;0.90;;
37449;SDS011;23309;52.582;13.406;2022-07-06T10:21:17;4.70;;;1.10;;
37449;SDS011;23309;52.582;13.406;2022-07-06T10:23:45;4.77;;;1.00;;
37449;SDS011;23309;52.582;13.406;2022-07-06T10:26:12;5.60;;;1.33;;
37449;SDS011;23309;52.582;13.406;2022-07-06T10:28:43;7.27;;;1.40;;
37449;SDS011;23309;52.582;13.406;2022-07-06T10:31:10;11.17;;;1.30;;
37449;SDS011;23309;52.582;13.406;2022-07-06T10:33:36;3.17;;;1.10;;
37449;SDS011;23309;52.582;13.406;2022-07-06T10:36:04;2.17;;;1.10;;
37449;SDS011;23309;52.582;13.406;2022-07-06T10:38:33;3.60;;;1.03;;
37449;SDS011;23309;52.582;13.406;2022-07-06T10:41:01;4.83;;;1.37;;
37449;SDS011;23309;52.582;13.406;2022-07-06T10:43:32;2.20;;;1.30;;
37449;SDS011;23309;52.582;13.406;2022-07-06T10:46:09;2.70;;;1.03;;
37449;SDS011;23309;52.582;13.406;2022-07-06T10:48:38;3.30;;;1.97;;
37449;SDS011;23309;52.582;13.406;2022-07-06T10:51:07;2.57;;;1.20;;
37449;SDS011;23309;52.582;13.406;2022-07-06T10:53:36;4.00;;;1.30;;
37449;SDS011;23309;52.582;13.406;2022-07-06T10:56:04;3.43;;;1.20;;
37449;SDS011;23309;52.582;13.406;2022-07-06T10:58:45;2.40;;;1.10;;
37449;SDS011;23309;52.582;13.406;2022-07-06T11:01:16;2.50;;;1.10;;
37449;SDS011;23309;52.582;13.406;2022-07-06T11:03:44;5.33;;;1.00;;
37449;SDS011;23309;52.582;13.406;2022-07-06T11:06:13;1.77;;;1.10;;
37449;SDS011;23309;52.582;13.406;2022-07-06T11:08:51;3.40;;;1.10;;
37449;SDS011;23309;52.582;13.406;2022-07-06T11:11:21;1.80;;;0.97;;
37449;SDS011;23309;52.582;13.406;2022-07-06T11:13:50;6.80;;;1.27;;
37449;SDS011;23309;52.582;13.406;2022-07-06T11:16:22;2.93;;;1.10;;
37449;SDS011;23309;52.582;13.406;2022-07-06T11:18:58;5.23;;;1.77;;
37449;SDS011;23309;52.582;13.406;2022-07-06T11:21:35;4.70;;;1.40;;
37449;SDS011;23309;52.582;13.406;2022-07-06T11:24:10;3.33;;;1.40;;
37449;SDS011;23309;52.582;13.406;2022-07-06T11:26:38;3.47;;;1.17;;
37449;SDS011;23309;52.582;13.406;2022-07-06T11:29:06;2.13;;;1.10;;
37449;SDS011;23309;52.582;13.406;2022-07-06T11:31:37;3.83;;;1.33;;
37449;SDS011;23309;52.582;13.406;2022-07-06T11:34:06;2.57;;;1.40;;
37449;SDS011;23309;52.582;13.406;2022-07-06T11:36:34;2.90;;;1.10;;
37449;SDS011;23309;52.582;13.406;2022-07-06T11:39:01;1.87;;;1.00;;
37449;SDS011;23309;52.582;13.406;2022-07-06T11:41:27;2.10;;;1.20;;
37449;SDS011;23309;52.582;13.406;2022-07-06T11:43:54;2.90;;;1.10;;
37449;SDS011;23309;52.582;13.406;2022-07-06T11:46:24;3.83;;;1.20;;
37449;SDS011;23309;52.582;13.406;2022-07-06T11:48:55;3.13;;;1.33;;
37449;SDS011;23309;52.582;13.406;2022-07-06T11:51:24;3.20;;;1.10;;
37449;SDS011;23309;52.582;13.406;2022-07-06T11:53:53;4.13;;;1.30;;
37449;SDS011;23309;52.582;13.406;2022-07-06T11:56:21;2.40;;;1.10;;
37449;SDS011;23309;52.582;13.406;2022-07-06T11:58:48;1.17;;;1.07;;
37449;SDS011;23309;52.582;13.406;2022-07-06T12:01:15;1.80;;;1.13;;
37449;SDS011;23309;52.582;13.406;2022-07-06T12:03:41;3.87;;;1.07;;
37449;SDS011;23309;52.582;13.406;2022-07-06T12:06:15;2.10;;;1.30;;
37449;SDS011;23309;52.582;13.406;2022-07-06T12:08:44;2.37;;;1.20;;
37449;SDS011;23309;52.582;13.406;2022-07-06T12:11:17;2.80;;;1.27;;
37449;SDS011;23309;52.582;13.406;2022-07-06T12:13:46;3.10;;;1.00;;
37449;SDS011;23309;52.582;13.406;2022-07-06T12:16:13;2.53;;;1.00;;
37449;SDS011;23309;52.582;13.406;2022-07-06T12:18:40;3.23;;;1.20;;
37449;SDS011;23309;52.582;13.406;2022-07-06T12:21:08;8.17;;;1.17;;
37449;SDS011;23309;52.582;13.406;2022-07-06T12:23:45;1.90;;;1.13;;
37449;SDS011;23309;52.582;13.406;2022-07-06T12:26:14;8.23;;;1.50;;
37449;SDS011;23309;52.582;13.406;2022-07-06T12:28:44;4.40;;;1.00;;
37449;SDS011;23309;52.582;13.406;2022-07-06T12:31:11;1.80;;;1.00;;
37449;SDS011;23309;52.582;13.406;2022-07-06T12:33:56;2.03;;;1.00;;
37449;SDS011;23309;52.582;13.406;2022-07-06T12:36:22;4.53;;;1.00;;
37449;SDS011;23309;52.582;13.406;2022-07-06T12:38:51;1.57;;;1.10;;
37449;SDS011;23309;52.582;13.406;2022-07-06T12:41:25;4.00;;;1.10;;
37449;SDS011;23309;52.582;13.406;2022-07-06T12:43:59;5.23;;;1.30;;
37449;SDS011;23309;52.582;13.406;2022-07-06T12:46:32;1.63;;;1.00;;
37449;SDS011;23309;52.582;13.406;2022-07-06T12:49:01;1.90;;;1.00;;
37449;SDS011;23309;52.582;13.406;2022-07-06T12:54:25;2.93;;;1.10;;
37449;SDS011;23309;52.582;13.406;2022-07-06T12:56:58;3.33;;;1.10;;
37449;SDS011;23309;52.582;13.406;2022-07-06T12:59:28;2.60;;;1.20;;
37449;SDS011;23309;52.582;13.406;2022-07-06T13:01:56;2.60;;;1.00;;
37449;SDS011;23309;52.582;13.406;2022-07-06T13:04:22;1.77;;;1.00;;
37449;SDS011;23309;52.582;13.406;2022-07-06T13:06:49;2.03;;;1.00;;
37449;SDS011;23309;52.582;13.406;2022-07-06T13:09:16;2.40;;;1.10;;
37449;SDS011;23309;52.582;13.406;2022-07-06T13:11:45;1.53;;;1.13;;
37449;SDS011;23309;52.582;13.406;2022-07-06T13:14:11;3.33;;;1.00;;
37449;SDS011;23309;52.582;13.406;2022-07-06T13:16:38;1.33;;;1.00;;
37449;SDS011;23309;52.582;13.406;2022-07-06T13:19:04;2.30;;;1.73;;
37449;SDS011;23309;52.582;13.406;2022-07-06T13:21:30;1.57;;;1.23;;
37449;SDS011;23309;52.582;13.406;2022-07-06T13:23:56;1.23;;;0.90;;
37449;SDS011;23309;52.582;13.406;2022-07-06T13:26:22;3.20;;;1.17;;
37449;SDS011;23309;52.582;13.406;2022-07-06T13:28:51;2.80;;;1.20;;
37449;SDS011;23309;52.582;13.406;2022-07-06T13:31:17;1.60;;;1.10;;
37449;SDS011;23309;52.582;13.406;2022-07-06T13:33:43;2.03;;;1.00;;
37449;SDS011;23309;52.582;13.406;2022-07-06T13:36:10;2.73;;;1.17;;
37449;SDS011;23309;52.582;13.406;2022-07-06T13:38:36;1.60;;;0.87;;
37449;SDS011;23309;52.582;13.406;2022-07-06T13:41:02;2.70;;;1.00;;
37449;SDS011;23309;52.582;13.406;2022-07-06T13:43:28;3.47;;;1.23;;
37449;SDS011;23309;52.582;13.406;2022-07-06T13:45:57;2.13;;;1.10;;
37449;SDS011;23309;52.582;13.406;2022-07-06T13:48:23;3.27;;;1.17;;
37449;SDS011;23309;52.582;13.406;2022-07-06T13:50:50;2.57;;;1.07;;
37449;SDS011;23309;52.582;13.406;2022-07-06T13:53:16;1.93;;;0.90;;
37449;SDS011;23309;52.582;13.406;2022-07-06T13:55:43;1.10;;;0.90;;
37449;SDS011;23309;52.582;13.406;2022-07-06T13:58:09;1.50;;;0.90;;
37449;SDS011;23309;52.582;13.406;2022-07-06T14:00:35;3.17;;;0.97;;
37449;SDS011;23309;52.582;13.406;2022-07-06T14:03:04;4.43;;;1.33;;
37449;SDS011;23309;52.582;13.406;2022-07-06T14:05:31;4.70;;;1.00;;
37449;SDS011;23309;52.582;13.406;2022-07-06T14:07:57;1.30;;;0.80;;
37449;SDS011;23309;52.582;13.406;2022-07-06T14:10:23;1.20;;;0.80;;
37449;SDS011;23309;52.582;13.406;2022-07-06T14:12:50;2.40;;;1.00;;
37449;SDS011;23309;52.582;13.406;2022-07-06T14:15:17;3.03;;;1.10;;
37449;SDS011;23309;52.582;13.406;2022-07-06T14:17:43;3.20;;;1.13;;
37449;SDS011;23309;52.582;13.406;2022-07-06T14:20:15;3.03;;;0.90;;
37449;SDS011;23309;52.582;13.406;2022-07-06T14:22:42;3.73;;;1.30;;
37449;SDS011;23309;52.582;13.406;2022-07-06T14:25:08;1.57;;;0.93;;
37449;SDS011;23309;52.582;13.406;2022-07-06T14:27:35;1.17;;;1.00;;
37449;SDS011;23309;52.582;13.406;2022-07-06T14:30:01;2.60;;;1.03;;
37449;SDS011;23309;52.582;13.406;2022-07-06T14:32:29;2.43;;;0.87;;
37449;SDS011;23309;52.582;13.406;2022-07-06T14:34:55;2.20;;;1.10;;
37449;SDS011;23309;52.582;13.406;2022-07-06T14:37:24;2.00;;;1.10;;
37449;SDS011;23309;52.582;13.406;2022-07-06T14:39:51;2.87;;;1.00;;